Time;durP1;ratioP1;P1;durP2;ratioP2;P2;SDS_P1;SDS_P2;PMS_P1;PMS_P2;Temp;Humidity;BMP_temperature;BMP_pressure;BME280_temperature;BME280_humidity;BME280_pressure;Samples;Min_cycle;Max_cycle;Signal;HPM_P1;HPM_P2
2022/01/29 00:02:04;;;;;;;;;70.00;52.75;17.20;99.90;;;;;;5023967;28;8835;-90
2022/01/29 00:04:30;;;;;;;;;66.60;53.00;17.20;99.90;;;;;;5039024;28;8799;-90
2022/01/29 00:06:57;;;;;;;;;67.40;51.40;17.20;99.90;;;;;;5029878;28;8776;-89
2022/01/29 00:09:24;;;;;;;;;64.20;50.80;17.30;99.90;;;;;;5035636;28;8775;-89
2022/01/29 00:11:51;;;;;;;;;79.20;63.20;17.20;99.90;;;;;;5019204;28;8818;-90
2022/01/29 00:14:17;;;;;;;;;78.80;59.00;16.90;99.90;;;;;;5019791;28;8784;-86
2022/01/29 00:16:44;;;;;;;;;76.20;61.00;17.00;99.90;;;;;;5021294;28;8786;-89
2022/01/29 00:19:11;;;;;;;;;70.00;56.20;17.20;99.90;;;;;;5004566;28;8819;-90
2022/01/29 00:21:38;;;;;;;;;73.80;57.00;17.30;99.90;;;;;;5024224;28;8802;-89
2022/01/29 00:24:13;;;;;;;;;79.40;64.60;17.20;99.90;;;;;;5041359;28;8770;-88
2022/01/29 00:26:40;;;;;;;;;74.80;60.20;17.10;99.90;;;;;;5057530;28;8746;-89
2022/01/29 00:29:18;;;;;;;;;86.00;73.40;17.30;99.90;;;;;;5041648;28;8781;-89
2022/01/29 00:31:44;;;;;;;;;84.00;74.20;17.20;99.90;;;;;;5029174;28;8719;-89
2022/01/29 00:34:11;;;;;;;;;106.60;89.20;17.10;99.90;;;;;;5042790;28;8766;-90
2022/01/29 00:36:38;;;;;;;;;95.20;80.20;17.20;99.90;;;;;;5060301;22;8861;-74
2022/01/29 00:39:04;;;;;;;;;79.80;66.00;17.30;99.90;;;;;;5054485;28;8798;-74
2022/01/29 00:41:31;;;;;;;;;81.40;74.40;17.40;99.90;;;;;;5055191;28;8852;-74
2022/01/29 00:43:58;;;;;;;;;85.40;74.40;17.40;99.90;;;;;;5054627;28;8855;-75
2022/01/29 00:46:25;;;;;;;;;81.20;70.00;17.40;99.90;;;;;;5059077;28;9512;-75
2022/01/29 00:48:51;;;;;;;;;88.60;80.20;17.60;99.90;;;;;;5041620;28;8758;-75
2022/01/29 00:51:18;;;;;;;;;92.40;76.00;17.70;99.90;;;;;;5052200;28;8895;-75
2022/01/29 00:53:45;;;;;;;;;91.60;78.40;17.70;99.90;;;;;;5038132;28;8795;-74
2022/01/29 00:56:11;;;;;;;;;89.20;72.00;17.80;99.90;;;;;;5037896;28;8776;-73
2022/01/29 00:58:38;;;;;;;;;105.60;94.00;17.80;99.90;;;;;;5037170;28;8764;-73
2022/01/29 01:01:05;;;;;;;;;116.00;101.80;17.70;99.90;;;;;;5022108;28;8842;-74
2022/01/29 01:03:32;;;;;;;;;107.40;94.40;17.70;99.90;;;;;;5037329;28;8772;-75
2022/01/29 01:05:58;;;;;;;;;107.00;86.60;17.90;99.90;;;;;;5041548;28;8790;-75
2022/01/29 01:08:25;;;;;;;;;79.20;71.80;18.10;99.90;;;;;;5057161;28;8762;-75
2022/01/29 01:10:52;;;;;;;;;85.40;73.40;18.20;99.90;;;;;;5057827;28;8785;-75
2022/01/29 01:13:21;;;;;;;;;81.40;71.80;18.30;99.90;;;;;;5058193;28;8815;-75
2022/01/29 01:15:48;;;;;;;;;70.60;54.40;18.40;99.90;;;;;;5057515;28;8788;-75
2022/01/29 01:18:15;;;;;;;;;78.40;64.60;18.50;99.90;;;;;;5057825;28;8750;-75
2022/01/29 01:20:41;;;;;;;;;80.20;62.40;18.60;99.90;;;;;;5057196;28;8762;-75
2022/01/29 01:23:08;;;;;;;;;78.80;66.40;18.80;99.90;;;;;;5040720;28;8801;-75
2022/01/29 01:25:35;;;;;;;;;74.60;56.60;18.80;99.90;;;;;;5058170;28;8792;-75
2022/01/29 01:28:01;;;;;;;;;74.00;57.40;18.90;99.90;;;;;;5058346;28;8750;-75
2022/01/29 01:30:28;;;;;;;;;72.00;54.20;19.00;99.90;;;;;;5023957;28;8769;-75
2022/01/29 01:32:55;;;;;;;;;69.00;54.20;19.10;99.90;;;;;;5041073;28;8742;-75
2022/01/29 01:35:36;;;;;;;;;67.60;51.60;19.20;99.90;;;;;;5056519;28;8802;-75
2022/01/29 01:40:32;;;;;;;;;71.20;52.60;19.40;99.90;;;;;;5056408;28;8762;-75
2022/01/29 01:43:00;;;;;;;;;65.80;50.40;19.40;99.90;;;;;;5057683;28;8742;-75
2022/01/29 01:45:30;;;;;;;;;63.00;47.20;19.40;99.90;;;;;;5048244;28;8746;-75
2022/01/29 01:47:57;;;;;;;;;66.20;49.60;19.60;99.90;;;;;;5073524;28;8811;-75
2022/01/29 01:50:24;;;;;;;;;64.00;50.40;19.70;99.90;;;;;;5049568;28;9068;-75
2022/01/29 01:52:51;;;;;;;;;64.20;48.20;19.80;99.90;;;;;;5038282;28;8753;-75
2022/01/29 01:55:18;;;;;;;;;56.25;46.25;19.90;99.90;;;;;;5020987;28;8724;-75
2022/01/29 01:57:45;;;;;;;;;54.75;43.25;20.00;99.90;;;;;;5036653;28;8755;-75
2022/01/29 02:00:12;;;;;;;;;53.00;43.50;20.00;99.90;;;;;;5028182;28;8783;-75
2022/01/29 02:02:39;;;;;;;;;51.25;41.50;20.10;99.90;;;;;;5036313;28;8752;-75
2022/01/29 02:05:06;;;;;;;;;54.75;43.75;20.10;99.90;;;;;;5012960;28;8844;-74
2022/01/29 02:07:32;;;;;;;;;55.50;43.25;20.10;99.90;;;;;;5035952;28;8743;-75
2022/01/29 02:09:59;;;;;;;;;53.25;41.50;20.20;99.90;;;;;;5040915;28;8708;-75
2022/01/29 02:12:29;;;;;;;;;51.50;42.00;20.30;99.90;;;;;;5056290;28;8742;-75
2022/01/29 02:15:01;;;;;;;;;45.00;38.50;20.40;99.90;;;;;;5057131;28;9438;-74
2022/01/29 02:17:28;;;;;;;;;49.25;39.00;20.50;99.90;;;;;;5045777;28;8748;-73
2022/01/29 02:19:54;;;;;;;;;52.00;42.25;20.70;99.90;;;;;;5056387;28;8872;-74
2022/01/29 02:22:21;;;;;;;;;48.75;39.25;20.80;99.90;;;;;;5062146;28;8814;-74
2022/01/29 02:24:48;;;;;;;;;53.75;40.50;20.90;99.90;;;;;;5023313;28;8750;-74
2022/01/29 02:27:17;;;;;;;;;56.00;42.25;21.00;99.90;;;;;;5056745;28;8806;-74
2022/01/29 02:29:44;;;;;;;;;51.25;39.25;21.10;99.90;;;;;;5056203;28;8771;-75
2022/01/29 02:32:11;;;;;;;;;53.00;43.50;21.20;99.90;;;;;;5039723;28;8763;-74
2022/01/29 02:34:38;;;;;;;;;49.50;39.00;21.20;99.90;;;;;;5022744;28;8829;-74
2022/01/29 02:37:04;;;;;;;;;47.50;38.50;21.30;99.90;;;;;;5044864;28;8798;-75
2022/01/29 02:39:31;;;;;;;;;57.75;43.50;21.40;99.90;;;;;;5021706;28;8803;-73
2022/01/29 02:41:58;;;;;;;;;53.75;44.75;21.50;99.90;;;;;;5035646;28;8779;-74
2022/01/29 02:44:25;;;;;;;;;53.50;43.50;21.60;99.90;;;;;;5035611;28;8787;-75
2022/01/29 02:46:57;;;;;;;;;53.00;41.75;21.70;99.90;;;;;;5036034;28;8784;-74
2022/01/29 02:49:25;;;;;;;;;54.75;43.25;21.80;99.90;;;;;;5036448;28;8870;-74
2022/01/29 02:51:54;;;;;;;;;52.75;43.50;21.90;99.90;;;;;;5035909;28;8776;-75
2022/01/29 02:54:20;;;;;;;;;49.50;38.00;22.00;99.90;;;;;;5019295;28;8843;-74
2022/01/29 02:56:47;;;;;;;;;48.50;38.25;22.10;99.90;;;;;;5046933;28;8788;-74
2022/01/29 02:59:14;;;;;;;;;47.00;36.75;22.20;99.90;;;;;;5032092;28;9020;-74
2022/01/29 03:01:41;;;;;;;;;47.25;39.00;22.30;99.90;;;;;;5035517;28;8767;-75
2022/01/29 03:04:08;;;;;;;;;43.25;35.75;22.40;99.90;;;;;;5036379;28;8754;-75
2022/01/29 03:06:35;;;;;;;;;44.75;35.75;22.50;99.90;;;;;;5035214;28;8784;-73
2022/01/29 03:09:02;;;;;;;;;39.50;34.25;22.50;99.90;;;;;;5034901;28;8782;-75
2022/01/29 03:11:28;;;;;;;;;48.25;37.25;22.70;99.90;;;;;;5019154;28;8815;-74
2022/01/29 03:13:55;;;;;;;;;49.50;37.50;22.80;99.90;;;;;;5035406;28;8755;-75
2022/01/29 03:16:22;;;;;;;;;39.25;34.25;22.80;99.90;;;;;;5019559;28;8742;-74
2022/01/29 03:18:49;;;;;;;;;36.00;32.75;22.80;99.90;;;;;;5018672;28;8859;-75
2022/01/29 03:21:15;;;;;;;;;41.75;34.75;22.90;99.90;;;;;;5041854;28;8837;-74
2022/01/29 03:23:42;;;;;;;;;39.75;33.25;23.00;99.90;;;;;;5038744;28;8763;-75
2022/01/29 03:26:09;;;;;;;;;42.00;34.50;23.00;99.90;;;;;;5038536;28;8905;-74
2022/01/29 03:28:35;;;;;;;;;39.25;33.75;23.10;99.90;;;;;;5054998;28;8732;-74
2022/01/29 03:31:02;;;;;;;;;34.25;30.75;23.30;99.90;;;;;;5055846;28;8740;-74
2022/01/29 03:33:29;;;;;;;;;33.25;28.50;23.40;99.90;;;;;;5054857;28;8925;-74
2022/01/29 03:35:56;;;;;;;;;32.00;30.50;23.60;99.90;;;;;;5035865;28;8783;-74
2022/01/29 03:38:23;;;;;;;;;26.25;23.25;23.70;99.90;;;;;;5034746;28;8875;-74
2022/01/29 03:40:51;;;;;;;;;36.00;28.00;23.80;99.90;;;;;;5019083;28;8784;-74
2022/01/29 03:43:27;;;;;;;;;25.75;25.75;23.80;99.90;;;;;;5035681;28;8728;-74
2022/01/29 03:45:53;;;;;;;;;31.20;26.40;23.80;99.90;;;;;;5055882;28;8820;-74
2022/01/29 03:48:20;;;;;;;;;25.60;25.00;23.90;99.90;;;;;;5054767;28;8755;-73
2022/01/29 03:50:47;;;;;;;;;26.25;25.00;24.00;99.90;;;;;;5039713;28;8743;-74
2022/01/29 03:53:14;;;;;;;;;26.75;18.75;24.10;99.90;;;;;;5075058;28;8796;-74
2022/01/29 03:55:40;;;;;;;;;20.60;19.60;24.30;99.90;;;;;;5058380;28;8737;-74
2022/01/29 03:58:07;;;;;;;;;26.00;26.00;24.30;99.90;;;;;;5059261;28;8843;-74
2022/01/29 04:00:34;;;;;;;;;20.00;17.25;24.40;99.90;;;;;;5075765;28;9433;-74
2022/01/29 04:03:00;;;;;;;;;22.25;21.50;24.40;99.90;;;;;;5041797;28;8811;-74
2022/01/29 04:05:27;;;;;;;;;23.00;20.00;24.50;99.60;;;;;;5074976;28;8737;-73
2022/01/29 04:07:54;;;;;;;;;24.25;21.50;24.50;99.90;;;;;;5057252;28;8747;-73
2022/01/29 04:10:23;;;;;;;;;25.50;22.25;24.70;99.90;;;;;;5038801;28;9396;-73
2022/01/29 04:12:51;;;;;;;;;23.50;21.00;24.80;99.90;;;;;;5056331;28;8743;-73
2022/01/29 04:15:18;;;;;;;;;21.75;19.25;24.90;99.10;;;;;;5022180;28;8743;-73
2022/01/29 04:17:45;;;;;;;;;22.50;21.25;25.10;98.70;;;;;;5022059;28;8736;-74
2022/01/29 04:20:12;;;;;;;;;22.75;20.00;25.30;98.30;;;;;;5057599;28;8740;-74
2022/01/29 04:22:39;;;;;;;;;23.00;21.25;25.40;98.70;;;;;;5074797;28;8813;-72
2022/01/29 04:25:06;;;;;;;;;24.00;21.00;25.50;97.90;;;;;;5079299;28;8725;-73
2022/01/29 04:27:42;;;;;;;;;21.50;19.00;25.60;97.60;;;;;;5061588;28;8776;-73
2022/01/29 04:30:27;;;;;;;;;25.50;22.00;25.60;97.70;;;;;;5062897;28;8713;-73
2022/01/29 04:32:59;;;;;;;;;20.50;16.25;25.60;97.90;;;;;;5079671;28;8736;-74
2022/01/29 04:35:26;;;;;;;;;30.00;25.25;25.70;97.70;;;;;;5077617;28;8736;-72
2022/01/29 04:37:53;;;;;;;;;31.00;24.00;25.80;97.20;;;;;;5061554;28;8733;-72
2022/01/29 04:40:19;;;;;;;;;25.25;21.75;25.90;97.40;;;;;;5078558;28;8732;-73
2022/01/29 04:42:46;;;;;;;;;24.75;23.25;26.10;96.50;;;;;;5078397;28;8756;-73
2022/01/29 04:45:13;;;;;;;;;23.40;21.00;26.10;96.40;;;;;;5079221;28;8831;-74
2022/01/29 04:47:40;;;;;;;;;26.75;22.50;26.20;95.60;;;;;;5078092;28;8732;-73
2022/01/29 04:50:07;;;;;;;;;22.75;21.50;26.10;95.40;;;;;;5079374;28;8779;-74
2022/01/29 04:52:33;;;;;;;;;26.75;25.00;26.10;96.10;;;;;;5044972;28;8779;-75
2022/01/29 04:55:00;;;;;;;;;27.50;24.00;26.20;96.00;;;;;;5058553;28;8759;-74
2022/01/29 04:57:27;;;;;;;;;30.25;25.50;26.20;95.90;;;;;;5057854;28;8877;-73
2022/01/29 04:59:53;;;;;;;;;29.00;24.75;26.40;97.00;;;;;;5057871;28;8945;-73
2022/01/29 05:02:20;;;;;;;;;30.75;28.75;26.60;95.80;;;;;;5040946;28;9219;-73
2022/01/29 05:04:47;;;;;;;;;26.75;26.50;26.60;94.90;;;;;;5058198;28;8763;-75
2022/01/29 05:07:14;;;;;;;;;32.75;28.75;26.60;95.30;;;;;;5071505;28;8943;-73
2022/01/29 05:09:40;;;;;;;;;27.75;24.00;26.70;95.50;;;;;;5078120;28;8760;-74
2022/01/29 05:12:08;;;;;;;;;28.75;26.75;26.70;95.20;;;;;;5078040;28;8772;-74
2022/01/29 05:14:52;;;;;;;;;34.50;26.25;26.70;95.90;;;;;;5077942;28;9450;-75
2022/01/29 05:28:03;;;;;;;;;29.75;24.50;27.30;94.30;;;;;;5044706;28;9428;-75
2022/01/29 05:30:29;;;;;;;;;29.50;26.00;27.30;94.10;;;;;;5056077;28;8803;-75
2022/01/29 05:32:56;;;;;;;;;22.40;20.00;27.30;93.70;;;;;;5057218;28;9547;-74
2022/01/29 05:35:23;;;;;;;;;21.60;20.40;27.50;92.60;;;;;;5056704;28;8785;-75
2022/01/29 05:37:51;;;;;;;;;20.60;16.80;27.70;92.40;;;;;;5058549;28;8826;-75
2022/01/29 05:40:18;;;;;;;;;27.00;22.00;27.90;91.40;;;;;;5077726;28;8873;-75
2022/01/29 05:42:44;;;;;;;;;23.00;20.20;27.90;90.70;;;;;;5077112;28;8855;-75
2022/01/29 05:45:11;;;;;;;;;28.00;22.00;27.80;91.00;;;;;;5076509;28;9461;-75
2022/01/29 05:47:38;;;;;;;;;23.75;22.00;27.90;91.10;;;;;;5076870;28;9135;-75
2022/01/29 05:50:05;;;;;;;;;22.50;20.00;28.00;91.20;;;;;;5076825;28;8757;-75
2022/01/29 05:52:32;;;;;;;;;17.50;17.50;28.10;90.40;;;;;;5028061;28;8793;-74
2022/01/29 05:54:59;;;;;;;;;22.25;20.50;28.10;89.30;;;;;;5040893;28;8763;-75
2022/01/29 05:57:26;;;;;;;;;22.50;19.50;28.10;90.60;;;;;;5057722;28;8834;-75
2022/01/29 05:59:52;;;;;;;;;19.75;17.50;28.20;89.40;;;;;;5056646;28;8925;-75
2022/01/29 06:02:19;;;;;;;;;20.50;17.00;28.40;87.30;;;;;;5040030;28;9445;-75
2022/01/29 06:04:46;;;;;;;;;18.25;18.00;28.50;88.70;;;;;;5039920;28;8789;-75
2022/01/29 06:07:12;;;;;;;;;25.25;21.00;28.50;88.20;;;;;;5053962;28;8858;-75
2022/01/29 06:09:39;;;;;;;;;20.00;18.00;28.50;86.30;;;;;;5076819;28;8776;-74
2022/01/29 06:12:06;;;;;;;;;17.75;16.75;28.50;86.40;;;;;;5060907;28;9406;-75
2022/01/29 06:14:33;;;;;;;;;15.50;13.25;28.60;84.30;;;;;;5061168;28;8856;-75
2022/01/29 06:17:00;;;;;;;;;21.25;18.25;28.80;83.50;;;;;;5077720;28;8760;-75
2022/01/29 06:19:27;;;;;;;;;19.00;17.00;28.90;85.00;;;;;;5077218;28;8761;-74
2022/01/29 06:21:54;;;;;;;;;17.25;16.75;28.90;84.30;;;;;;5078989;28;8741;-75
2022/01/29 06:24:21;;;;;;;;;18.50;17.50;28.90;83.00;;;;;;5078305;28;8725;-74
2022/01/29 06:26:51;;;;;;;;;21.25;17.25;28.90;82.60;;;;;;5044825;28;8745;-76
2022/01/29 06:29:17;;;;;;;;;22.25;20.00;28.90;81.60;;;;;;5061171;28;8834;-74
2022/01/29 06:31:48;;;;;;;;;16.75;14.75;28.90;80.80;;;;;;5060808;28;8737;-75
2022/01/29 06:34:15;;;;;;;;;18.50;17.00;29.00;83.60;;;;;;5061930;28;8824;-75
2022/01/29 06:36:42;;;;;;;;;16.75;16.75;29.00;81.60;;;;;;5040136;28;8748;-74
2022/01/29 06:39:08;;;;;;;;;19.75;17.00;29.10;83.90;;;;;;5057057;28;9455;-74
2022/01/29 06:41:35;;;;;;;;;17.50;15.00;29.10;82.40;;;;;;5056418;28;8743;-74
2022/01/29 06:44:02;;;;;;;;;15.20;13.40;29.10;80.40;;;;;;5022960;28;8773;-74
2022/01/29 06:46:28;;;;;;;;;17.25;16.75;29.10;77.90;;;;;;5056491;28;8775;-75
2022/01/29 06:48:55;;;;;;;;;19.00;17.50;29.30;78.90;;;;;;5040383;28;8823;-75
2022/01/29 06:51:22;;;;;;;;;12.80;12.20;29.50;79.40;;;;;;5061159;28;8733;-75
2022/01/29 06:53:48;;;;;;;;;18.40;16.80;29.60;77.00;;;;;;5077264;28;8721;-74
2022/01/29 06:56:18;;;;;;;;;15.25;15.25;29.60;75.20;;;;;;5075900;28;8729;-74
2022/01/29 06:58:45;;;;;;;;;22.00;17.75;29.60;77.60;;;;;;5058921;28;8788;-75
2022/01/29 07:01:11;;;;;;;;;16.00;12.80;29.80;76.70;;;;;;5076484;28;8729;-75
2022/01/29 07:03:38;;;;;;;;;21.00;14.00;29.70;75.00;;;;;;5075516;28;8761;-75
2022/01/29 07:06:04;;;;;;;;;17.80;17.60;29.80;75.50;;;;;;5075062;28;8787;-75
2022/01/29 07:08:37;;;;;;;;;16.20;9.60;29.80;76.40;;;;;;5075437;28;8784;-75
2022/01/29 07:11:04;;;;;;;;;17.20;12.80;29.90;75.00;;;;;;5075609;28;8749;-75
2022/01/29 07:13:31;;;;;;;;;18.00;14.25;29.90;74.50;;;;;;5074812;28;8784;-74
2022/01/29 07:15:58;;;;;;;;;17.50;17.00;30.00;74.40;;;;;;5076927;28;8764;-75
2022/01/29 07:18:24;;;;;;;;;21.00;17.25;30.00;73.60;;;;;;5075110;28;9448;-75
2022/01/29 07:20:51;;;;;;;;;20.50;17.25;30.00;74.80;;;;;;5074844;28;8785;-75
2022/01/29 07:23:18;;;;;;;;;21.00;18.00;29.90;74.40;;;;;;5059055;28;8748;-75
2022/01/29 07:25:45;;;;;;;;;20.00;18.50;30.00;73.80;;;;;;5059369;28;8733;-75
2022/01/29 07:28:11;;;;;;;;;20.25;18.50;30.00;73.80;;;;;;5059122;28;8757;-75
2022/01/29 07:30:38;;;;;;;;;14.50;14.50;29.90;73.70;;;;;;5076503;28;8837;-74
2022/01/29 07:33:05;;;;;;;;;13.00;13.00;30.00;67.90;;;;;;5059471;28;8776;-74
2022/01/29 07:35:31;;;;;;;;;13.75;11.50;29.90;70.00;;;;;;5075246;28;9469;-75
2022/01/29 07:37:58;;;;;;;;;17.75;16.50;30.00;70.60;;;;;;5059174;28;8748;-75
2022/01/29 07:40:25;;;;;;;;;12.25;12.25;30.00;69.60;;;;;;5076269;28;9448;-75
2022/01/29 07:42:51;;;;;;;;;16.20;13.80;30.00;69.50;;;;;;5075644;28;9386;-76
2022/01/29 07:45:18;;;;;;;;;14.25;13.25;30.10;70.40;;;;;;5075296;28;8912;-75
2022/01/29 07:47:45;;;;;;;;;14.00;13.00;30.00;70.90;;;;;;5076839;28;8757;-75
2022/01/29 07:50:12;;;;;;;;;13.75;11.00;30.10;70.90;;;;;;5075176;28;8749;-75
2022/01/29 07:52:38;;;;;;;;;11.75;7.50;30.10;71.90;;;;;;5058293;28;8780;-75
2022/01/29 07:55:07;;;;;;;;;10.25;10.25;30.20;70.80;;;;;;5058527;28;8767;-75
2022/01/29 07:57:34;;;;;;;;;16.60;15.80;30.20;71.20;;;;;;5060056;28;9490;-75
2022/01/29 08:00:00;;;;;;;;;12.00;11.80;30.30;69.20;;;;;;5042489;28;8795;-75
2022/01/29 08:02:27;;;;;;;;;12.60;12.60;30.30;69.10;;;;;;5058730;28;8752;-74
2022/01/29 08:04:54;;;;;;;;;18.25;14.75;30.40;69.70;;;;;;5060353;28;8760;-75
2022/01/29 08:07:20;;;;;;;;;16.25;14.00;30.40;70.00;;;;;;5074223;28;8830;-75
2022/01/29 08:09:53;;;;;;;;;13.50;12.75;30.50;67.10;;;;;;5062291;28;9003;-75
2022/01/29 08:12:20;;;;;;;;;13.50;11.50;30.40;68.00;;;;;;5078746;28;9469;-74
2022/01/29 08:14:46;;;;;;;;;11.75;11.75;30.50;67.20;;;;;;5062043;28;8760;-75
2022/01/29 08:17:13;;;;;;;;;10.00;10.00;30.40;68.20;;;;;;5078563;28;8781;-75
2022/01/29 08:19:40;;;;;;;;;11.25;11.00;30.40;67.60;;;;;;5078440;28;8772;-75
2022/01/29 08:22:07;;;;;;;;;11.40;11.40;30.40;65.00;;;;;;5067181;28;8792;-74
2022/01/29 08:24:35;;;;;;;;;13.20;10.60;30.40;66.30;;;;;;5041683;28;8763;-74
2022/01/29 08:27:01;;;;;;;;;12.00;9.60;30.30;65.40;;;;;;5060016;28;8953;-75
2022/01/29 08:29:29;;;;;;;;;9.80;6.20;30.40;66.40;;;;;;5058366;28;8822;-75
2022/01/29 08:31:56;;;;;;;;;8.80;6.80;30.50;65.90;;;;;;5042408;28;8747;-75
2022/01/29 08:34:23;;;;;;;;;9.00;7.00;30.60;64.40;;;;;;5042279;28;8723;-75
2022/01/29 08:36:49;;;;;;;;;8.80;8.60;30.70;61.70;;;;;;5051401;28;8798;-75
2022/01/29 08:39:16;;;;;;;;;7.80;6.20;30.70;61.80;;;;;;5078208;28;8759;-75
2022/01/29 08:41:43;;;;;;;;;6.80;6.20;30.70;61.00;;;;;;5078179;28;8749;-75
2022/01/29 08:44:10;;;;;;;;;8.00;6.40;30.70;60.40;;;;;;5078770;28;8757;-75
2022/01/29 08:46:36;;;;;;;;;11.00;7.60;30.70;59.90;;;;;;5077672;28;8744;-75
2022/01/29 08:49:03;;;;;;;;;10.60;7.00;30.60;61.60;;;;;;5062385;28;8718;-75
2022/01/29 08:51:30;;;;;;;;;10.00;7.80;30.60;62.40;;;;;;5070735;28;8797;-75
2022/01/29 08:53:56;;;;;;;;;9.60;9.40;30.60;61.40;;;;;;5041429;28;8763;-76
2022/01/29 08:56:23;;;;;;;;;9.20;7.80;30.60;63.10;;;;;;5057980;28;8723;-75
2022/01/29 08:58:50;;;;;;;;;10.00;7.00;30.70;61.40;;;;;;5057967;28;8711;-75
2022/01/29 09:01:17;;;;;;;;;10.00;8.60;30.70;61.20;;;;;;5041929;28;9502;-75
2022/01/29 09:03:44;;;;;;;;;8.00;7.40;30.60;62.50;;;;;;5041081;28;8760;-75
2022/01/29 09:06:11;;;;;;;;;10.40;7.20;30.60;62.00;;;;;;5043387;28;8776;-75
2022/01/29 09:08:39;;;;;;;;;11.60;10.00;30.60;62.60;;;;;;5077795;28;8788;-75
2022/01/29 09:11:06;;;;;;;;;11.40;10.00;30.50;61.60;;;;;;5077817;28;8775;-75
2022/01/29 09:13:33;;;;;;;;;10.20;10.20;30.50;62.60;;;;;;5077116;28;9486;-74
2022/01/29 09:15:59;;;;;;;;;11.40;9.20;30.40;62.30;;;;;;5061752;28;8769;-74
2022/01/29 09:18:27;;;;;;;;;12.00;10.00;30.40;62.40;;;;;;5077953;28;8769;-75
2022/01/29 09:20:53;;;;;;;;;7.40;7.00;30.40;61.70;;;;;;5077232;28;9465;-74
2022/01/29 09:23:20;;;;;;;;;11.40;10.40;30.30;62.40;;;;;;5044118;28;8771;-74
2022/01/29 09:25:47;;;;;;;;;13.00;12.00;30.20;62.70;;;;;;5060859;28;8749;-74
2022/01/29 09:28:14;;;;;;;;;10.60;10.60;30.20;62.30;;;;;;5061519;28;8753;-75
2022/01/29 09:30:40;;;;;;;;;13.20;11.20;30.20;62.10;;;;;;5043956;28;8749;-74
2022/01/29 09:33:07;;;;;;;;;9.50;9.50;30.10;62.10;;;;;;5060801;28;8859;-75
2022/01/29 09:35:34;;;;;;;;;10.20;8.60;30.10;62.80;;;;;;5043532;28;8796;-75
2022/01/29 09:38:01;;;;;;;;;11.75;11.00;30.20;63.10;;;;;;5057163;28;8767;-75
2022/01/29 09:40:27;;;;;;;;;11.00;11.00;30.20;63.10;;;;;;5056956;28;8783;-75
2022/01/29 09:42:54;;;;;;;;;13.20;11.60;30.10;62.90;;;;;;5041504;28;8743;-75
2022/01/29 09:45:23;;;;;;;;;11.50;11.50;30.20;62.40;;;;;;5056590;28;8755;-75
2022/01/29 09:47:50;;;;;;;;;13.00;11.50;30.10;63.20;;;;;;5040698;28;8755;-75
2022/01/29 09:50:18;;;;;;;;;14.00;12.00;30.10;63.90;;;;;;5040549;28;8759;-74
2022/01/29 09:52:44;;;;;;;;;12.25;9.75;30.10;63.10;;;;;;5057590;28;9409;-75
2022/01/29 09:55:11;;;;;;;;;16.75;11.25;30.00;63.00;;;;;;5077116;28;9452;-75
2022/01/29 09:57:38;;;;;;;;;13.75;13.75;29.90;63.90;;;;;;5076808;28;8769;-75
2022/01/29 10:00:05;;;;;;;;;16.50;13.00;29.80;63.10;;;;;;5076937;28;8768;-74
2022/01/29 10:02:32;;;;;;;;;16.60;13.60;29.80;62.80;;;;;;5043265;28;8796;-75
2022/01/29 10:04:58;;;;;;;;;15.40;13.80;29.70;62.90;;;;;;5076562;28;8800;-76
2022/01/29 10:07:28;;;;;;;;;19.80;16.60;29.70;63.10;;;;;;5061826;28;8774;-74
2022/01/29 10:09:56;;;;;;;;;17.00;14.80;29.80;62.50;;;;;;5024583;28;8825;-74
2022/01/29 10:12:27;;;;;;;;;14.00;12.50;29.80;63.60;;;;;;5039816;28;8747;-75
2022/01/29 10:15:02;;;;;;;;;13.25;12.50;29.70;63.70;;;;;;5040313;28;8767;-75
2022/01/29 10:17:45;;;;;;;;;19.25;14.50;29.70;63.50;;;;;;5040361;28;8795;-74
2022/01/29 10:20:19;;;;;;;;;19.50;14.75;29.70;64.10;;;;;;5056694;28;8867;-75
2022/01/29 10:22:55;;;;;;;;;17.50;14.50;29.60;64.40;;;;;;5073720;28;8772;-76
2022/01/29 10:25:28;;;;;;;;;15.25;12.75;29.50;64.40;;;;;;5076437;28;8847;-75
2022/01/29 10:28:13;;;;;;;;;11.00;11.00;29.40;64.40;;;;;;5077950;28;8729;-75
2022/01/29 10:30:49;;;;;;;;;15.25;13.75;29.30;65.20;;;;;;5077312;28;8752;-75
2022/01/29 10:33:26;;;;;;;;;21.00;16.00;29.30;65.60;;;;;;5077410;28;8862;-75
2022/01/29 10:35:54;;;;;;;;;13.25;13.25;29.30;65.90;;;;;;5075630;28;9480;-75
2022/01/29 10:38:22;;;;;;;;;14.00;13.50;29.20;66.30;;;;;;5059153;28;8744;-75
2022/01/29 10:41:20;;;;;;;;;14.80;14.80;29.10;66.80;;;;;;5059433;28;8849;-75
2022/01/29 10:44:11;;;;;;;;;20.20;19.80;29.10;66.90;;;;;;5076236;28;8749;-75
2022/01/29 10:46:59;;;;;;;;;20.40;20.20;28.90;67.30;;;;;;5076112;28;8854;-74
2022/01/29 10:49:35;;;;;;;;;18.50;13.00;28.80;67.80;;;;;;5092178;28;8949;-74
2022/01/29 10:52:07;;;;;;;;;18.60;15.00;28.60;67.70;;;;;;5060911;28;8737;-75
2022/01/29 10:54:36;;;;;;;;;17.00;13.75;28.60;68.50;;;;;;5075986;28;8753;-74
2022/01/29 10:57:02;;;;;;;;;20.80;16.20;28.40;68.70;;;;;;5076039;28;8753;-74
2022/01/29 10:59:31;;;;;;;;;15.60;14.60;28.30;69.00;;;;;;5075025;28;8823;-74
2022/01/29 11:02:06;;;;;;;;;20.25;17.75;28.20;69.20;;;;;;5075315;28;8875;-74
2022/01/29 11:04:35;;;;;;;;;17.00;13.00;28.00;69.50;;;;;;5075034;28;8761;-74
2022/01/29 11:07:05;;;;;;;;;19.60;16.20;27.90;70.40;;;;;;5064810;28;8760;-74
2022/01/29 11:09:32;;;;;;;;;25.75;23.75;27.80;70.40;;;;;;5055046;28;8771;-75
2022/01/29 11:12:03;;;;;;;;;27.25;24.25;27.70;71.10;;;;;;5038612;28;8790;-74
2022/01/29 11:14:30;;;;;;;;;25.00;22.50;27.50;71.60;;;;;;5038563;28;9080;-74
2022/01/29 11:16:58;;;;;;;;;26.50;22.50;27.40;72.30;;;;;;5055499;28;8762;-74
2022/01/29 11:19:24;;;;;;;;;24.75;22.00;27.30;73.00;;;;;;5055604;28;8751;-74
2022/01/29 11:21:53;;;;;;;;;24.50;20.00;27.10;73.60;;;;;;5048459;28;8756;-74
2022/01/29 11:24:22;;;;;;;;;20.75;17.75;27.00;74.20;;;;;;5074690;28;8863;-74
2022/01/29 11:26:50;;;;;;;;;21.00;18.25;26.90;74.60;;;;;;5075173;28;8809;-74
2022/01/29 11:29:29;;;;;;;;;27.00;22.50;26.70;75.00;;;;;;5074121;28;8903;-74
2022/01/29 11:32:23;;;;;;;;;23.25;20.00;26.60;75.10;;;;;;5074911;28;8745;-74
2022/01/29 11:35:06;;;;;;;;;21.00;14.75;26.50;75.50;;;;;;5076407;28;8785;-73
2022/01/29 11:37:53;;;;;;;;;25.00;20.00;26.40;75.90;;;;;;5074801;28;8793;-73
2022/01/29 11:40:23;;;;;;;;;19.25;18.00;26.30;75.80;;;;;;5075531;28;8761;-74
2022/01/29 11:43:09;;;;;;;;;25.00;20.25;26.20;76.10;;;;;;5075281;28;8737;-74
2022/01/29 11:45:53;;;;;;;;;22.25;20.50;26.10;76.40;;;;;;5076503;28;8785;-74
2022/01/29 11:48:28;;;;;;;;;29.00;24.75;26.00;76.10;;;;;;5075495;28;8757;-74
2022/01/29 11:50:56;;;;;;;;;23.00;23.00;26.00;76.00;;;;;;5073445;28;8867;-74
2022/01/29 11:53:23;;;;;;;;;21.75;17.75;25.90;76.40;;;;;;5054687;28;8767;-74
2022/01/29 11:55:52;;;;;;;;;28.00;22.75;25.90;77.00;;;;;;5038675;28;8774;-74
2022/01/29 11:58:29;;;;;;;;;31.50;27.50;25.80;77.10;;;;;;5055109;28;8813;-74
2022/01/29 12:01:04;;;;;;;;;31.50;28.50;25.70;77.20;;;;;;5055101;28;8997;-74
2022/01/29 12:03:45;;;;;;;;;29.25;27.75;25.70;77.80;;;;;;5039462;28;8762;-74
2022/01/29 12:06:21;;;;;;;;;39.75;32.50;25.60;77.80;;;;;;5060423;28;8887;-74
2022/01/29 12:09:28;;;;;;;;;36.00;33.00;25.50;77.10;;;;;;5059834;28;8756;-74
2022/01/29 12:12:22;;;;;;;;;34.50;28.50;25.50;77.00;;;;;;5076534;28;8771;-74
2022/01/29 12:14:50;;;;;;;;;28.75;26.50;25.40;77.70;;;;;;5074583;28;8804;-74
2022/01/29 12:17:41;;;;;;;;;29.75;26.25;25.30;78.00;;;;;;5074805;28;8753;-73
2022/01/29 12:20:09;;;;;;;;;25.00;23.00;25.20;77.80;;;;;;5076089;28;8748;-73
2022/01/29 12:22:36;;;;;;;;;22.25;20.50;25.20;78.20;;;;;;5054131;28;9655;-73
2022/01/29 12:25:11;;;;;;;;;22.50;21.00;25.30;78.10;;;;;;5038653;28;8747;-73
2022/01/29 12:28:09;;;;;;;;;27.50;23.25;25.20;78.20;;;;;;5054547;28;8787;-73
2022/01/29 12:30:39;;;;;;;;;29.75;22.75;25.20;78.60;;;;;;5040592;28;8818;-73
2022/01/29 12:33:13;;;;;;;;;24.25;20.75;25.10;79.00;;;;;;5054966;28;8949;-74
2022/01/29 12:35:57;;;;;;;;;27.00;24.25;25.00;79.30;;;;;;5054486;28;8953;-73
2022/01/29 12:38:29;;;;;;;;;23.25;21.50;24.90;80.80;;;;;;5015711;28;8765;-73
2022/01/29 12:41:25;;;;;;;;;25.50;22.75;24.70;80.60;;;;;;5017971;28;8887;-73
2022/01/29 12:43:54;;;;;;;;;32.00;24.75;24.60;80.90;;;;;;5006945;28;8939;-73
2022/01/29 12:46:22;;;;;;;;;28.00;24.00;24.50;81.00;;;;;;5019507;28;8741;-73
2022/01/29 12:49:11;;;;;;;;;26.25;23.00;24.40;82.10;;;;;;5019633;28;8834;-73
2022/01/29 12:51:50;;;;;;;;;34.25;26.75;24.30;82.30;;;;;;5007319;28;8788;-74
2022/01/29 12:54:17;;;;;;;;;36.75;32.75;24.20;83.60;;;;;;5020043;28;8811;-73
2022/01/29 12:56:44;;;;;;;;;43.75;34.25;24.10;84.50;;;;;;5002343;28;8836;-73
2022/01/29 12:59:15;;;;;;;;;36.50;31.75;24.10;84.60;;;;;;5018632;28;8752;-73
2022/01/29 13:01:45;;;;;;;;;38.50;33.25;24.10;83.30;;;;;;5051182;28;8733;-73